Pagrindinis puslapis
METAR-TAF:

METAR-TAF

Oro uostai :

Hammerfest, Norvegija

platuma: 70-40N, ilguma: 023-40E, Aukštis: 8 m

Dabartinis oras

Ataskaita buvo paskelbta 21 minutes, ne 05:50 UTC
Vėjas 13 kt iš Vakarų, svyruoja nuo Pietvakarių ir Šiaurės/Šiaurės Vakarų
Temperatūra -4°C
Drėgmė 93%
Slėgis 1003 hPa
Matomumas 10 km arba daugiau
Su prošvaistėmis ne aukštis 1000 ft
sniegas, Sniego pustymas pažeme

METAR: ENHF 100550Z 27013KT 230V330 9999 -SHSN DRSN BKN010 M04/M05 Q1003 RESHSN RMK WIND 1254FT /////KT

Laikas: 08:11 (06:11 UTC)

Prognozė

Ataskaita buvo paskelbta 6 valandos ir 51 minutes, ne 23:20 UTC
Prognozė galioja nuo 09 metu 23 UTC su 10 metu 03 UTC
Vėjas 6 kt iš Vakarų/Šiaurės Vakarų
Matomumas 10 km arba daugiau
Mažai debesys ne aukštis 1500 ft
Su prošvaistėmis ne aukštis 3000 ft
Laikinai
nuo 09 metu 23 UTC su 10 metu 03 UTC
Vėjas 15 kt iš Vakarų su gūsio iki 25 kt
Matomumas: 1000 m
ne aukštis 800 ft
sniegas

TAF: ENHF 092320Z 0923/1003 30006KT 9999 FEW015 BKN030 TEMPO 0923/1003 27015G25KT 1000 SHSN VV008

Orai ataskaitas ir orų prognozės (METAR, TAF).

turimą stotys yra geltonos ir raudonos taškus žemėlapyje.

Perkelti pele per norėdami pamatyti stoties vardą.

Tada spustelėkite, norėdami matyti oro stebėjimo ir prognozės.

Norėdami pakeisti žemėlapį: spustelėkite ant žalios mygtukų su juodo kryžiaus žemyn,; žalią mygtuką su brūkšneliu, jei norite nutolinti; arba žalių rodyklių gretimoms žemėlapius.


METAR-TAF: